Time;durP1;ratioP1;P1;durP2;ratioP2;P2;SDS_P1;SDS_P2;PMS_P1;PMS_P2;Temp;Humidity;BMP_temperature;BMP_pressure;BME280_temperature;BME280_humidity;BME280_pressure;Samples;Min_cycle;Max_cycle;Signal;HPM_P1;HPM_P2
2024/03/27 00:00:13;;;;;;;3.30;2.03;;;19.20;58.50;;;;;;5054266;28;20508;-51
2024/03/27 00:02:39;;;;;;;2.65;1.70;;;19.20;58.50;;;;;;5053803;28;20090;-57
2024/03/27 00:05:04;;;;;;;3.35;1.70;;;19.20;58.50;;;;;;5054439;28;20097;-53
2024/03/27 00:07:30;;;;;;;2.53;2.20;;;19.20;58.50;;;;;;5053318;28;20029;-55
2024/03/27 00:09:55;;;;;;;2.50;2.03;;;19.20;58.50;;;;;;5055461;28;20486;-57
2024/03/27 00:12:21;;;;;;;2.38;1.55;;;19.20;58.50;;;;;;5055160;28;20111;-50
2024/03/27 00:14:46;;;;;;;3.35;2.10;;;19.10;58.50;;;;;;5047264;28;20037;-53
2024/03/27 00:17:12;;;;;;;2.90;1.92;;;19.20;58.60;;;;;;5052068;28;20040;-51
2024/03/27 00:19:37;;;;;;;2.95;2.03;;;19.20;58.60;;;;;;5050761;28;20774;-52
2024/03/27 00:22:03;;;;;;;2.83;2.03;;;19.20;58.60;;;;;;5054373;28;20056;-56
2024/03/27 00:24:31;;;;;;;3.50;1.83;;;19.10;58.50;;;;;;5047337;28;20041;-51
2024/03/27 00:26:56;;;;;;;1.88;1.50;;;19.20;58.60;;;;;;5051619;28;20049;-54
2024/03/27 00:29:22;;;;;;;4.75;2.35;;;19.20;58.50;;;;;;5050098;28;20449;-50
2024/03/27 00:31:49;;;;;;;2.35;1.42;;;19.20;58.50;;;;;;5050734;28;20029;-55
2024/03/27 00:34:14;;;;;;;2.78;1.77;;;19.10;58.50;;;;;;5055036;28;20035;-55
2024/03/27 00:36:40;;;;;;;1.98;1.58;;;19.20;58.50;;;;;;5054967;28;20037;-53
2024/03/27 00:39:06;;;;;;;2.25;1.73;;;19.20;58.50;;;;;;5053742;28;20028;-50
2024/03/27 00:41:32;;;;;;;2.55;1.80;;;19.10;58.50;;;;;;5054746;28;20103;-56
2024/03/27 00:43:57;;;;;;;3.25;2.03;;;19.20;58.60;;;;;;5057650;28;20032;-50
2024/03/27 00:46:24;;;;;;;2.75;1.85;;;19.10;58.50;;;;;;5053152;28;20146;-51
2024/03/27 00:48:50;;;;;;;2.58;1.63;;;19.20;58.60;;;;;;5058050;28;20043;-57
2024/03/27 00:51:15;;;;;;;2.85;1.73;;;19.10;58.50;;;;;;5061254;28;20024;-52
2024/03/27 00:53:40;;;;;;;2.38;1.70;;;19.20;58.50;;;;;;5057150;28;20040;-54
2024/03/27 00:56:06;;;;;;;2.08;1.45;;;19.20;58.60;;;;;;5052524;28;20112;-59
2024/03/27 00:58:32;;;;;;;3.30;1.70;;;19.10;58.50;;;;;;5054769;28;20693;-51
2024/03/27 01:00:58;;;;;;;3.17;1.40;;;19.20;58.60;;;;;;5055256;28;20557;-53
2024/03/27 01:03:24;;;;;;;2.50;1.50;;;19.10;58.50;;;;;;5058720;28;20031;-56
2024/03/27 01:05:49;;;;;;;1.70;1.50;;;19.20;58.60;;;;;;5052690;28;20040;-52
2024/03/27 01:08:15;;;;;;;3.40;2.03;;;19.10;58.50;;;;;;5057305;28;20025;-57
2024/03/27 01:10:40;;;;;;;2.78;1.95;;;19.10;58.60;;;;;;5061640;28;20056;-55
2024/03/27 01:13:07;;;;;;;2.72;1.85;;;19.10;58.70;;;;;;5060049;28;20153;-50
2024/03/27 01:15:33;;;;;;;2.33;1.70;;;19.00;58.80;;;;;;5058278;28;20036;-50
2024/03/27 01:17:58;;;;;;;1.90;1.50;;;19.00;58.80;;;;;;5060295;28;20028;-53
2024/03/27 01:20:24;;;;;;;2.13;1.52;;;19.00;58.90;;;;;;5058149;28;20130;-54
2024/03/27 01:22:49;;;;;;;2.55;1.83;;;19.00;59.00;;;;;;5056193;28;20500;-56
2024/03/27 01:25:15;;;;;;;2.22;1.42;;;18.90;59.00;;;;;;5060259;28;20063;-58
2024/03/27 01:27:41;;;;;;;1.80;1.42;;;18.90;59.10;;;;;;5058582;28;20024;-55
2024/03/27 01:30:07;;;;;;;2.67;1.70;;;18.90;59.10;;;;;;5055325;28;20044;-53
2024/03/27 01:32:34;;;;;;;2.33;1.30;;;18.80;59.80;;;;;;5061308;28;20048;-53
2024/03/27 01:34:59;;;;;;;1.75;1.23;;;18.80;59.20;;;;;;5060908;28;20028;-54
2024/03/27 01:37:25;;;;;;;2.63;1.90;;;18.80;59.30;;;;;;5060204;28;20031;-55
2024/03/27 01:39:50;;;;;;;4.53;2.08;;;18.80;59.40;;;;;;5053211;28;20040;-53
2024/03/27 01:42:16;;;;;;;1.65;1.27;;;18.80;59.40;;;;;;5057248;28;20028;-57
2024/03/27 01:44:41;;;;;;;1.52;1.40;;;18.80;59.40;;;;;;5037584;28;20844;-59
2024/03/27 01:47:09;;;;;;;1.92;1.35;;;18.80;59.40;;;;;;5059577;28;20028;-56
2024/03/27 01:49:35;;;;;;;2.17;1.48;;;18.70;59.30;;;;;;5062052;28;20036;-56
2024/03/27 01:52:00;;;;;;;2.83;1.92;;;18.80;59.40;;;;;;5058126;28;20044;-57
2024/03/27 01:54:26;;;;;;;1.63;1.25;;;18.80;59.30;;;;;;5055794;28;20025;-55
2024/03/27 01:56:53;;;;;;;2.28;1.55;;;18.80;59.20;;;;;;5057468;28;20475;-53
2024/03/27 01:59:20;;;;;;;1.90;1.67;;;18.80;59.20;;;;;;5052425;28;20033;-60
2024/03/27 02:01:48;;;;;;;2.00;1.45;;;18.80;59.10;;;;;;5054194;28;20845;-57
2024/03/27 02:04:14;;;;;;;2.15;1.70;;;18.90;59.10;;;;;;5055953;28;20116;-58
2024/03/27 02:06:40;;;;;;;2.67;1.25;;;18.90;59.00;;;;;;5051984;28;20442;-50
2024/03/27 02:09:06;;;;;;;2.90;1.70;;;18.90;59.00;;;;;;5051361;28;20075;-54
2024/03/27 02:11:32;;;;;;;1.98;1.20;;;18.90;58.80;;;;;;5054489;28;20107;-52
2024/03/27 02:13:58;;;;;;;2.17;1.52;;;18.90;58.80;;;;;;5054821;28;20692;-56
2024/03/27 02:16:23;;;;;;;2.58;1.45;;;19.00;58.80;;;;;;5054586;28;20032;-57
2024/03/27 02:18:49;;;;;;;2.42;1.70;;;19.00;58.60;;;;;;5056809;28;20013;-57
2024/03/27 02:21:14;;;;;;;2.53;1.55;;;19.00;58.60;;;;;;5060096;28;20447;-58
2024/03/27 02:24:35;;;;;;;2.30;1.63;;;19.10;58.60;;;;;;5060601;28;20025;-49
2024/03/27 02:27:01;;;;;;;3.13;1.63;;;19.10;58.40;;;;;;4978322;28;20407;-58
2024/03/27 02:29:26;;;;;;;2.60;1.48;;;19.10;58.40;;;;;;5039516;28;20051;-56
2024/03/27 02:31:52;;;;;;;1.70;1.40;;;19.20;58.30;;;;;;5043691;28;20039;-50
2024/03/27 02:34:17;;;;;;;2.45;1.80;;;19.20;58.30;;;;;;5058741;28;20448;-50
2024/03/27 02:36:43;;;;;;;1.70;1.27;;;19.20;58.20;;;;;;5057907;28;20032;-58
2024/03/27 02:39:09;;;;;;;3.05;1.50;;;19.20;58.20;;;;;;5055805;28;21645;-54
2024/03/27 02:41:34;;;;;;;1.60;1.30;;;19.20;58.20;;;;;;5055683;28;20041;-50
2024/03/27 02:44:00;;;;;;;1.92;1.13;;;19.20;58.10;;;;;;5055206;28;20090;-54
2024/03/27 02:46:25;;;;;;;1.85;1.27;;;19.30;58.10;;;;;;5051198;28;20397;-52
2024/03/27 02:48:51;;;;;;;1.45;1.30;;;19.30;58.10;;;;;;5056240;28;20036;-57
2024/03/27 02:51:17;;;;;;;1.85;1.33;;;19.20;58.00;;;;;;5056552;28;20052;-54
2024/03/27 02:53:42;;;;;;;1.92;1.60;;;19.30;58.00;;;;;;5054540;28;20033;-50
2024/03/27 02:56:08;;;;;;;2.65;1.40;;;19.30;58.00;;;;;;5038773;28;20477;-53
2024/03/27 02:58:33;;;;;;;1.83;1.30;;;19.30;57.90;;;;;;5051729;28;20032;-55
2024/03/27 03:00:59;;;;;;;2.47;1.40;;;19.40;58.00;;;;;;5009938;28;20860;-52
2024/03/27 03:03:24;;;;;;;1.35;1.25;;;19.30;57.90;;;;;;5024676;28;20859;-54
2024/03/27 03:05:50;;;;;;;2.15;1.50;;;19.30;57.90;;;;;;5004877;28;20040;-52
2024/03/27 03:08:15;;;;;;;2.53;1.58;;;19.30;58.00;;;;;;5011957;28;20024;-54
2024/03/27 03:10:41;;;;;;;2.25;1.38;;;19.30;58.00;;;;;;5040072;28;20086;-52
2024/03/27 03:13:06;;;;;;;1.50;1.13;;;19.30;58.10;;;;;;5027098;28;20102;-53
2024/03/27 03:15:32;;;;;;;2.88;1.95;;;19.30;58.20;;;;;;5047963;28;20033;-55
2024/03/27 03:17:58;;;;;;;1.90;1.50;;;19.20;58.10;;;;;;5051512;28;20032;-52
2024/03/27 03:20:23;;;;;;;1.98;1.20;;;19.20;58.20;;;;;;5047653;28;20089;-53
2024/03/27 03:22:52;;;;;;;1.85;1.50;;;19.20;58.20;;;;;;5052683;28;20038;-54
2024/03/27 03:25:18;;;;;;;1.92;1.20;;;19.20;58.30;;;;;;5052239;28;20037;-54
2024/03/27 03:27:43;;;;;;;2.13;1.40;;;19.20;58.30;;;;;;5051013;28;20793;-53
2024/03/27 03:30:09;;;;;;;1.73;1.30;;;19.20;58.40;;;;;;5055530;28;20047;-53
2024/03/27 03:32:35;;;;;;;2.47;1.50;;;19.20;58.40;;;;;;5053424;28;20162;-53
2024/03/27 03:35:00;;;;;;;1.30;1.20;;;19.10;58.30;;;;;;5059794;28;20048;-55
2024/03/27 03:37:26;;;;;;;1.83;1.45;;;19.10;58.40;;;;;;5059598;28;20682;-54
2024/03/27 03:39:51;;;;;;;1.65;1.20;;;19.10;58.50;;;;;;5056113;28;20040;-56
2024/03/27 03:42:17;;;;;;;2.67;1.52;;;19.10;58.50;;;;;;5054422;28;20762;-55
2024/03/27 03:44:43;;;;;;;1.50;1.17;;;19.00;58.50;;;;;;5051477;28;20101;-55
2024/03/27 03:47:08;;;;;;;2.35;1.08;;;19.00;58.60;;;;;;5038546;28;20040;-56
2024/03/27 03:49:34;;;;;;;2.60;1.10;;;19.00;58.60;;;;;;5037229;28;20050;-54
2024/03/27 03:51:59;;;;;;;1.33;1.10;;;19.00;58.60;;;;;;5058769;28;20107;-54
2024/03/27 03:54:24;;;;;;;2.30;1.60;;;19.00;58.60;;;;;;5053987;28;20438;-54
2024/03/27 03:56:50;;;;;;;1.65;1.50;;;19.00;58.70;;;;;;5054323;28;20370;-56
2024/03/27 03:59:15;;;;;;;1.75;1.27;;;19.00;58.70;;;;;;5056948;28;20062;-53
2024/03/27 04:01:41;;;;;;;1.45;1.30;;;19.00;58.70;;;;;;5038855;28;20032;-54
2024/03/27 04:04:07;;;;;;;2.70;1.48;;;19.00;58.70;;;;;;5044599;28;20039;-55
2024/03/27 04:06:33;;;;;;;1.63;1.20;;;19.00;58.80;;;;;;5048799;28;20640;-58
2024/03/27 04:08:59;;;;;;;1.38;1.27;;;19.00;58.80;;;;;;5056457;28;20502;-54
2024/03/27 04:11:25;;;;;;;0.90;0.80;;;19.00;58.80;;;;;;5048733;28;20029;-53
2024/03/27 04:13:51;;;;;;;2.33;1.40;;;18.90;58.80;;;;;;5053586;28;20521;-53
2024/03/27 04:16:17;;;;;;;1.27;1.17;;;18.90;58.80;;;;;;5055383;28;20437;-54
2024/03/27 04:18:42;;;;;;;1.10;1.00;;;18.90;58.80;;;;;;5055717;28;20032;-53
2024/03/27 04:21:08;;;;;;;2.65;1.65;;;18.90;58.90;;;;;;5059198;28;20073;-56
2024/03/27 04:23:33;;;;;;;1.30;1.17;;;18.90;58.90;;;;;;5059087;28;20035;-53
2024/03/27 04:25:59;;;;;;;1.50;1.00;;;18.90;58.80;;;;;;5059528;28;20101;-53
2024/03/27 04:28:25;;;;;;;1.75;1.00;;;18.90;58.90;;;;;;5059358;28;20029;-53
2024/03/27 04:30:52;;;;;;;1.50;1.17;;;18.90;58.90;;;;;;5060160;28;20037;-56
2024/03/27 04:33:19;;;;;;;1.58;1.10;;;18.90;58.90;;;;;;5057205;28;20104;-53
2024/03/27 04:35:44;;;;;;;2.03;1.35;;;18.90;58.90;;;;;;5061213;28;20112;-54
2024/03/27 04:38:10;;;;;;;2.60;1.08;;;18.90;58.90;;;;;;5056204;28;20525;-55
2024/03/27 04:40:36;;;;;;;1.92;1.17;;;18.90;58.90;;;;;;5058282;28;20059;-53
2024/03/27 04:43:02;;;;;;;1.40;1.23;;;18.90;58.90;;;;;;5055315;28;20449;-52
2024/03/27 04:45:29;;;;;;;2.22;1.02;;;18.80;58.80;;;;;;5057644;28;20108;-56
2024/03/27 04:47:54;;;;;;;1.83;1.27;;;18.90;58.90;;;;;;5052690;28;20028;-52
2024/03/27 04:50:20;;;;;;;2.22;1.45;;;18.90;58.90;;;;;;5059860;28;20033;-54
2024/03/27 04:52:45;;;;;;;1.77;1.38;;;18.90;58.90;;;;;;5057209;28;20081;-52
2024/03/27 04:55:11;;;;;;;2.85;1.38;;;18.90;58.90;;;;;;5057120;28;20037;-53
2024/03/27 04:57:36;;;;;;;1.27;1.17;;;18.90;58.90;;;;;;5058715;28;20043;-51
2024/03/27 05:00:02;;;;;;;1.73;1.15;;;18.80;58.80;;;;;;5058818;28;20045;-54
2024/03/27 05:02:27;;;;;;;1.88;1.02;;;18.90;58.80;;;;;;5054874;28;20748;-53
2024/03/27 05:04:53;;;;;;;1.40;0.95;;;18.90;58.80;;;;;;5059295;28;21562;-53
2024/03/27 05:07:19;;;;;;;1.45;1.10;;;18.90;58.80;;;;;;5061385;28;20036;-54
2024/03/27 05:09:44;;;;;;;1.75;1.33;;;18.90;58.80;;;;;;5061506;28;20068;-55
2024/03/27 05:12:11;;;;;;;1.30;1.17;;;18.90;58.80;;;;;;5042356;28;20033;-53
2024/03/27 05:14:37;;;;;;;1.85;1.00;;;18.90;58.80;;;;;;5057538;28;20102;-55
2024/03/27 05:17:03;;;;;;;1.65;1.20;;;18.90;58.80;;;;;;5059392;28;20088;-54
2024/03/27 05:19:28;;;;;;;2.53;1.52;;;18.90;58.80;;;;;;5058930;28;20028;-54
2024/03/27 05:21:53;;;;;;;1.65;1.27;;;18.90;58.80;;;;;;5059172;28;20117;-54
2024/03/27 05:24:19;;;;;;;1.90;1.33;;;18.90;58.70;;;;;;5058914;28;20421;-52
2024/03/27 05:26:50;;;;;;;2.28;1.40;;;18.90;58.70;;;;;;5054409;28;20119;-51
2024/03/27 05:29:15;;;;;;;2.53;1.58;;;18.90;58.70;;;;;;5055808;28;20032;-54
2024/03/27 05:31:55;;;;;;;4.18;1.70;;;18.90;58.70;;;;;;5057275;28;20512;-54
2024/03/27 05:34:22;;;;;;;3.60;1.92;;;18.90;58.60;;;;;;5057265;28;20028;-52
2024/03/27 05:36:47;;;;;;;2.83;1.73;;;18.90;58.70;;;;;;5054062;28;20424;-54
2024/03/27 05:39:13;;;;;;;5.22;2.42;;;18.90;58.60;;;;;;5057151;28;20044;-54
2024/03/27 05:41:40;;;;;;;4.38;2.00;;;18.90;58.60;;;;;;5059484;28;20467;-55
2024/03/27 05:44:10;;;;;;;4.05;2.08;;;18.90;58.60;;;;;;5058958;28;20541;-56
2024/03/27 05:46:36;;;;;;;2.67;2.13;;;18.90;58.60;;;;;;5050422;28;20029;-53
2024/03/27 05:49:03;;;;;;;3.72;2.00;;;19.00;58.60;;;;;;5059667;28;21395;-61
2024/03/27 05:51:30;;;;;;;2.95;2.00;;;18.90;58.60;;;;;;5044052;28;20037;-56
2024/03/27 05:53:55;;;;;;;3.70;1.92;;;19.00;58.60;;;;;;5055998;28;20120;-51
2024/03/27 05:56:22;;;;;;;6.53;2.97;;;19.00;58.60;;;;;;5057066;28;20521;-50
2024/03/27 05:58:48;;;;;;;3.65;1.92;;;19.00;58.60;;;;;;5058004;28;20017;-58
2024/03/27 06:01:14;;;;;;;3.65;2.22;;;19.00;58.50;;;;;;5059808;28;20036;-57
2024/03/27 06:03:39;;;;;;;4.28;2.08;;;19.00;58.40;;;;;;5056322;28;20028;-56
2024/03/27 06:06:05;;;;;;;5.80;2.45;;;19.00;58.30;;;;;;5042541;28;20036;-49
2024/03/27 06:08:31;;;;;;;3.55;2.22;;;19.10;58.40;;;;;;5058231;28;20037;-55
2024/03/27 06:10:57;;;;;;;4.78;2.50;;;19.10;58.30;;;;;;5057137;28;20108;-51
2024/03/27 06:13:23;;;;;;;5.20;2.60;;;19.10;58.30;;;;;;5051953;28;20036;-49
2024/03/27 06:15:48;;;;;;;4.22;2.67;;;19.10;58.20;;;;;;5054811;28;20035;-56
2024/03/27 06:18:13;;;;;;;5.78;3.22;;;19.10;58.20;;;;;;5052453;28;20031;-57
2024/03/27 06:20:41;;;;;;;4.93;2.95;;;19.10;58.20;;;;;;5054203;28;20035;-51
2024/03/27 06:23:07;;;;;;;5.97;3.50;;;19.10;58.20;;;;;;5059179;28;20029;-50
2024/03/27 06:25:33;;;;;;;7.70;4.05;;;19.10;58.30;;;;;;5056913;28;20025;-51
2024/03/27 06:27:58;;;;;;;5.88;3.65;;;19.10;58.30;;;;;;5032400;28;20030;-55
2024/03/27 06:30:24;;;;;;;9.38;3.90;;;19.10;58.30;;;;;;5049603;28;20040;-60
2024/03/27 06:32:49;;;;;;;7.50;3.88;;;19.10;58.40;;;;;;5053851;28;20112;-49
2024/03/27 06:35:16;;;;;;;4.38;3.22;;;19.10;58.30;;;;;;5045692;28;20379;-58
2024/03/27 06:37:41;;;;;;;5.63;3.67;;;19.10;58.40;;;;;;5053316;28;20036;-50
2024/03/27 06:40:09;;;;;;;7.28;3.55;;;19.10;58.30;;;;;;5052912;28;20520;-58
2024/03/27 06:42:35;;;;;;;5.78;3.53;;;19.10;58.30;;;;;;5039018;28;20033;-55
2024/03/27 06:45:02;;;;;;;12.27;3.88;;;19.10;58.30;;;;;;5055640;28;20043;-56
2024/03/27 06:47:27;;;;;;;7.72;3.65;;;19.10;58.40;;;;;;5053422;28;20032;-50
2024/03/27 06:49:53;;;;;;;5.93;3.30;;;19.10;58.30;;;;;;5053880;28;20028;-59
2024/03/27 06:52:19;;;;;;;7.13;3.80;;;19.20;58.30;;;;;;5052313;28;20037;-50
2024/03/27 06:54:48;;;;;;;7.75;3.58;;;19.10;58.30;;;;;;5055454;28;20077;-60
2024/03/27 06:57:13;;;;;;;9.27;3.33;;;19.10;58.30;;;;;;5037149;28;20457;-60
2024/03/27 06:59:39;;;;;;;5.28;3.17;;;19.10;58.30;;;;;;5034768;28;20036;-57
2024/03/27 07:02:05;;;;;;;5.30;3.25;;;19.10;58.30;;;;;;5036564;28;20032;-58
2024/03/27 07:04:31;;;;;;;6.55;3.42;;;19.10;58.30;;;;;;5025223;28;20046;-61
2024/03/27 07:06:57;;;;;;;7.78;3.88;;;19.10;58.20;;;;;;5033152;28;20098;-54
2024/03/27 07:09:23;;;;;;;6.53;3.63;;;19.20;58.30;;;;;;5033776;28;20043;-60
2024/03/27 07:11:49;;;;;;;8.57;3.78;;;19.10;58.30;;;;;;5030742;28;20716;-50
2024/03/27 07:14:14;;;;;;;5.07;3.83;;;19.10;58.30;;;;;;5031758;28;20045;-55
2024/03/27 07:16:43;;;;;;;4.57;3.20;;;19.20;58.30;;;;;;5018828;28;20075;-54
2024/03/27 07:19:09;;;;;;;4.43;2.95;;;19.20;58.30;;;;;;5046394;28;20039;-54
2024/03/27 07:21:34;;;;;;;6.13;3.15;;;19.20;58.30;;;;;;5044100;28;20033;-53
2024/03/27 07:24:00;;;;;;;7.63;3.70;;;19.20;58.30;;;;;;5049274;28;20556;-53
2024/03/27 07:26:25;;;;;;;5.90;3.20;;;19.20;58.30;;;;;;5052211;28;20032;-53
2024/03/27 07:28:50;;;;;;;4.95;3.08;;;19.20;58.30;;;;;;5047312;28;20105;-56
2024/03/27 07:31:16;;;;;;;5.65;3.22;;;19.20;58.30;;;;;;5030936;28;20028;-57
2024/03/27 07:33:41;;;;;;;5.75;3.40;;;19.20;58.30;;;;;;5050904;28;20148;-55
2024/03/27 07:36:07;;;;;;;5.53;3.20;;;19.20;58.30;;;;;;5053903;28;20083;-55
2024/03/27 07:38:32;;;;;;;4.47;3.00;;;19.20;58.90;;;;;;5056757;28;20031;-52
2024/03/27 07:40:58;;;;;;;5.40;3.25;;;19.20;58.30;;;;;;5055100;28;20034;-53
2024/03/27 07:43:23;;;;;;;4.50;2.80;;;19.20;58.30;;;;;;5049534;28;20036;-54
2024/03/27 07:45:49;;;;;;;5.03;3.30;;;19.10;58.30;;;;;;5053430;28;20047;-55
2024/03/27 07:48:14;;;;;;;5.07;2.78;;;19.10;59.00;;;;;;5053664;28;20045;-56
2024/03/27 07:50:40;;;;;;;8.18;3.42;;;19.10;58.30;;;;;;5054492;28;20098;-53
2024/03/27 07:53:05;;;;;;;5.47;3.03;;;19.10;58.40;;;;;;5055099;28;20112;-52
2024/03/27 07:55:31;;;;;;;4.72;3.17;;;19.10;58.50;;;;;;5056203;28;20037;-52
2024/03/27 07:57:57;;;;;;;5.80;3.83;;;19.10;58.50;;;;;;5061821;28;20043;-54
2024/03/27 08:00:22;;;;;;;3.55;2.58;;;19.10;58.60;;;;;;5060963;28;20025;-54
2024/03/27 08:02:48;;;;;;;6.57;3.05;;;19.00;58.70;;;;;;5056634;28;20029;-54
2024/03/27 08:05:13;;;;;;;6.65;2.92;;;19.00;58.80;;;;;;5060798;28;20042;-54
2024/03/27 08:07:39;;;;;;;6.47;3.08;;;19.00;58.70;;;;;;5039768;28;20055;-52
2024/03/27 08:10:05;;;;;;;5.20;2.83;;;19.00;58.80;;;;;;5036102;28;20044;-53
2024/03/27 08:12:31;;;;;;;4.88;2.97;;;18.90;58.80;;;;;;5033267;28;20037;-55
2024/03/27 08:14:57;;;;;;;4.88;2.75;;;18.90;58.90;;;;;;5000539;28;20106;-53
2024/03/27 08:17:22;;;;;;;4.85;2.88;;;18.90;59.00;;;;;;5029304;28;20152;-55
2024/03/27 08:19:48;;;;;;;5.82;3.28;;;18.90;59.10;;;;;;5033769;28;21201;-53
2024/03/27 08:22:13;;;;;;;5.40;3.38;;;18.80;59.10;;;;;;5038201;28;20047;-53
2024/03/27 08:24:39;;;;;;;4.65;2.85;;;18.80;59.00;;;;;;5035768;28;20044;-54
2024/03/27 08:27:05;;;;;;;7.25;3.35;;;18.80;59.10;;;;;;5036079;28;20080;-53
2024/03/27 08:29:31;;;;;;;5.63;3.08;;;18.80;59.00;;;;;;5037610;28;20575;-54
2024/03/27 08:32:00;;;;;;;6.25;3.08;;;18.80;59.00;;;;;;5035884;28;20040;-56
2024/03/27 08:34:27;;;;;;;3.28;2.38;;;18.80;59.00;;;;;;5036602;28;20036;-55
2024/03/27 08:36:52;;;;;;;4.95;3.28;;;18.80;59.00;;;;;;5036821;28;20064;-54
2024/03/27 08:39:20;;;;;;;6.45;3.15;;;18.90;59.00;;;;;;5032722;28;20109;-52
2024/03/27 08:41:49;;;;;;;4.68;2.67;;;18.90;59.00;;;;;;5035364;28;20047;-55
2024/03/27 08:44:16;;;;;;;5.72;2.83;;;18.90;58.90;;;;;;5038352;28;20444;-51
2024/03/27 08:46:41;;;;;;;5.38;3.30;;;18.90;58.80;;;;;;5032326;28;20063;-54
2024/03/27 08:49:06;;;;;;;5.10;3.35;;;18.90;58.80;;;;;;5031812;28;20395;-53
2024/03/27 08:51:32;;;;;;;4.35;2.78;;;18.90;58.70;;;;;;5034865;28;20032;-53
2024/03/27 08:53:57;;;;;;;4.32;3.22;;;19.00;58.70;;;;;;5028119;28;20041;-53
2024/03/27 08:56:23;;;;;;;4.38;3.00;;;19.00;58.70;;;;;;5021359;28;20045;-54
2024/03/27 08:58:49;;;;;;;5.70;3.10;;;19.00;58.50;;;;;;5032350;28;20036;-56
2024/03/27 09:01:16;;;;;;;5.47;3.30;;;19.00;58.50;;;;;;5038612;28;20033;-52
2024/03/27 09:03:42;;;;;;;4.53;2.72;;;19.00;58.50;;;;;;5036232;28;20119;-53
2024/03/27 09:06:08;;;;;;;7.38;3.38;;;19.00;58.40;;;;;;5034934;28;20108;-54
2024/03/27 09:08:34;;;;;;;3.90;2.58;;;19.00;58.40;;;;;;5036714;28;20033;-51
2024/03/27 09:11:00;;;;;;;5.95;3.03;;;19.10;58.30;;;;;;5037960;28;20037;-52
2024/03/27 09:13:26;;;;;;;3.72;2.67;;;19.10;58.30;;;;;;5028525;28;20032;-54
2024/03/27 09:15:51;;;;;;;4.60;2.78;;;19.10;58.30;;;;;;5033176;28;20028;-54
2024/03/27 09:18:17;;;;;;;6.28;2.92;;;19.10;58.20;;;;;;5033188;28;20649;-52
2024/03/27 09:20:43;;;;;;;4.55;2.63;;;19.10;58.20;;;;;;5037707;28;20134;-51
2024/03/27 09:23:08;;;;;;;4.53;2.78;;;19.10;58.80;;;;;;5032286;28;20036;-51
2024/03/27 09:25:34;;;;;;;4.53;2.70;;;19.10;58.20;;;;;;5037729;28;20738;-52
2024/03/27 09:27:59;;;;;;;6.20;3.00;;;19.20;58.10;;;;;;5030858;28;20154;-52
2024/03/27 09:30:25;;;;;;;7.20;3.53;;;19.20;58.10;;;;;;5034629;28;20078;-53
2024/03/27 09:32:50;;;;;;;3.97;2.67;;;19.20;58.10;;;;;;5036851;28;20465;-53
2024/03/27 09:35:16;;;;;;;4.30;2.42;;;19.20;58.00;;;;;;5032386;28;20032;-53
2024/03/27 09:37:41;;;;;;;4.93;2.83;;;19.20;58.00;;;;;;5034727;28;20174;-55
2024/03/27 09:40:08;;;;;;;4.70;3.00;;;19.20;58.00;;;;;;5039260;28;20666;-53
2024/03/27 09:42:36;;;;;;;2.95;2.33;;;19.20;57.90;;;;;;5034190;28;20173;-53
2024/03/27 09:45:02;;;;;;;4.13;2.67;;;19.30;57.90;;;;;;5036503;28;20041;-53
2024/03/27 09:47:31;;;;;;;3.65;2.47;;;19.30;57.80;;;;;;5032025;28;20053;-53
2024/03/27 09:49:56;;;;;;;4.35;2.58;;;19.30;57.80;;;;;;5034271;28;20037;-53
2024/03/27 09:52:24;;;;;;;3.72;2.33;;;19.30;57.80;;;;;;5034482;28;20043;-53
2024/03/27 09:54:51;;;;;;;3.40;2.15;;;19.30;57.80;;;;;;5032888;28;20176;-51
2024/03/27 09:57:17;;;;;;;4.32;2.50;;;19.30;57.80;;;;;;5031936;28;20031;-52
2024/03/27 09:59:42;;;;;;;5.30;2.75;;;19.40;57.80;;;;;;5034476;28;20033;-53
2024/03/27 10:02:10;;;;;;;4.40;2.20;;;19.40;57.70;;;;;;5037921;28;20556;-54
2024/03/27 10:04:37;;;;;;;2.38;1.85;;;19.40;57.70;;;;;;5034954;28;20750;-55
2024/03/27 10:07:06;;;;;;;3.10;2.00;;;19.40;57.60;;;;;;5035917;28;20647;-53
2024/03/27 10:09:31;;;;;;;3.22;2.08;;;19.40;57.70;;;;;;5031050;28;20297;-54
2024/03/27 10:11:58;;;;;;;3.15;2.30;;;19.40;57.60;;;;;;5028062;28;20677;-53
2024/03/27 10:14:23;;;;;;;3.17;2.30;;;19.40;57.60;;;;;;5030888;28;20677;-55
2024/03/27 10:16:49;;;;;;;5.50;2.30;;;19.50;57.60;;;;;;5027318;28;20044;-53
2024/03/27 10:19:14;;;;;;;3.65;2.08;;;19.50;57.60;;;;;;5034073;28;20033;-54
2024/03/27 10:21:40;;;;;;;3.90;2.05;;;19.50;57.50;;;;;;5031883;28;20041;-57
2024/03/27 10:24:07;;;;;;;2.92;1.83;;;19.50;57.50;;;;;;5037413;28;20835;-52
2024/03/27 10:26:33;;;;;;;3.05;2.03;;;19.50;57.40;;;;;;5028714;28;20036;-57
2024/03/27 10:28:59;;;;;;;2.70;1.95;;;19.50;57.40;;;;;;5035133;28;20033;-58
2024/03/27 10:31:25;;;;;;;3.50;2.38;;;19.60;57.50;;;;;;5037500;28;20090;-56
2024/03/27 10:33:51;;;;;;;2.80;1.98;;;19.50;57.50;;;;;;5035127;28;20020;-54
2024/03/27 10:36:23;;;;;;;2.50;1.92;;;19.50;57.40;;;;;;5040054;28;20474;-51
2024/03/27 10:38:58;;;;;;;3.65;2.20;;;19.60;58.00;;;;;;5023278;28;20021;-56
2024/03/27 10:41:26;;;;;;;2.37;1.80;;;19.60;57.40;;;;;;5029121;22;20048;-54
2024/03/27 10:43:56;;;;;;;2.97;1.98;;;19.60;57.40;;;;;;5026141;28;20741;-54
2024/03/27 10:46:22;;;;;;;3.72;2.10;;;19.60;57.40;;;;;;5020512;28;20021;-55
2024/03/27 10:48:49;;;;;;;3.38;2.00;;;19.60;57.50;;;;;;5021659;28;20123;-57
2024/03/27 10:51:15;;;;;;;2.97;1.85;;;19.60;57.40;;;;;;5007464;28;20042;-54
2024/03/27 10:53:41;;;;;;;4.28;2.15;;;19.60;57.40;;;;;;5009018;28;20033;-55
2024/03/27 10:56:10;;;;;;;3.58;2.05;;;19.60;57.50;;;;;;5028653;28;20058;-50
2024/03/27 10:58:37;;;;;;;3.00;1.98;;;19.60;57.40;;;;;;5007705;28;20391;-54
2024/03/27 11:01:03;;;;;;;2.92;1.88;;;19.60;57.40;;;;;;5011259;28;20103;-55
2024/03/27 11:03:29;;;;;;;3.63;2.03;;;19.60;57.40;;;;;;5008463;28;20025;-53
2024/03/27 11:05:58;;;;;;;3.15;2.30;;;19.60;57.40;;;;;;5010304;28;20022;-53
2024/03/27 11:08:26;;;;;;;3.53;2.10;;;19.60;57.40;;;;;;5006091;28;20491;-53
2024/03/27 11:11:05;;;;;;;3.42;1.92;;;19.60;57.40;;;;;;5008900;28;20450;-52
2024/03/27 11:13:30;;;;;;;2.67;1.85;;;19.60;57.30;;;;;;5006529;28;20485;-54
2024/03/27 11:15:56;;;;;;;3.17;1.80;;;19.60;57.40;;;;;;5005667;28;20103;-54
2024/03/27 11:18:29;;;;;;;7.47;1.77;;;19.60;57.40;;;;;;5001309;28;20030;-51
2024/03/27 11:20:56;;;;;;;2.85;1.85;;;19.60;57.40;;;;;;5006022;28;20553;-51
2024/03/27 11:23:50;;;;;;;3.90;1.80;;;19.60;57.40;;;;;;5003673;28;20045;-53
2024/03/27 11:26:27;;;;;;;2.67;1.63;;;19.60;57.50;;;;;;5007795;28;20034;-51
2024/03/27 11:28:53;;;;;;;1.85;1.67;;;19.60;57.40;;;;;;4999167;28;20026;-53
2024/03/27 11:31:20;;;;;;;3.45;1.90;;;19.70;57.50;;;;;;5008622;28;20068;-54
2024/03/27 11:33:46;;;;;;;2.90;1.88;;;19.70;57.50;;;;;;5005730;28;20022;-49
2024/03/27 11:36:12;;;;;;;2.17;1.77;;;19.60;57.40;;;;;;5005141;28;20125;-51
2024/03/27 11:38:38;;;;;;;1.88;1.55;;;19.70;57.50;;;;;;5006690;28;20113;-52
2024/03/27 11:41:03;;;;;;;2.80;1.63;;;19.70;57.40;;;;;;5005152;28;20049;-54
2024/03/27 11:43:29;;;;;;;2.53;2.00;;;19.70;57.50;;;;;;5003905;28;20057;-53
2024/03/27 11:45:54;;;;;;;3.25;1.75;;;19.70;57.50;;;;;;5004041;28;20037;-51
2024/03/27 11:48:20;;;;;;;2.17;1.58;;;19.60;57.50;;;;;;5003721;28;20026;-53
2024/03/27 11:50:48;;;;;;;2.47;1.65;;;19.70;57.50;;;;;;5004947;28;20034;-52
2024/03/27 11:53:14;;;;;;;3.10;1.90;;;19.60;57.40;;;;;;5006784;28;20104;-54
2024/03/27 11:55:40;;;;;;;2.75;1.55;;;19.70;57.50;;;;;;5007792;28;20034;-53
2024/03/27 11:58:05;;;;;;;2.58;1.67;;;19.70;57.60;;;;;;5004233;28;20088;-52
2024/03/27 12:00:31;;;;;;;2.97;1.58;;;19.70;57.50;;;;;;5004874;28;20507;-54
2024/03/27 12:02:58;;;;;;;2.92;1.83;;;19.70;57.40;;;;;;5000678;28;20037;-55
2024/03/27 12:05:27;;;;;;;2.47;1.77;;;19.70;57.40;;;;;;5005192;28;20110;-51
2024/03/27 12:07:52;;;;;;;4.05;1.58;;;19.70;57.50;;;;;;4999263;28;20052;-53
2024/03/27 12:10:19;;;;;;;1.45;1.35;;;19.70;57.50;;;;;;5002826;28;20038;-56
2024/03/27 12:12:45;;;;;;;1.95;1.60;;;19.70;57.50;;;;;;4999607;28;20030;-55
2024/03/27 12:15:10;;;;;;;3.42;1.70;;;19.70;57.60;;;;;;4999359;28;20040;-57
2024/03/27 12:17:40;;;;;;;2.40;1.60;;;19.70;57.60;;;;;;5001427;28;20742;-53
2024/03/27 12:20:07;;;;;;;2.92;1.90;;;19.70;57.70;;;;;;4999056;28;20042;-51
2024/03/27 12:22:33;;;;;;;1.52;1.30;;;19.70;57.70;;;;;;5003121;28;20026;-53
2024/03/27 12:25:04;;;;;;;2.20;1.30;;;19.70;57.70;;;;;;5001022;28;20046;-57
2024/03/27 12:27:30;;;;;;;1.60;1.20;;;19.60;57.60;;;;;;5001676;28;20060;-53
2024/03/27 12:29:56;;;;;;;3.15;1.30;;;19.60;57.60;;;;;;5002478;28;20033;-50
2024/03/27 12:32:24;;;;;;;1.55;1.33;;;19.60;57.60;;;;;;5002039;28;20026;-50
2024/03/27 12:34:51;;;;;;;2.47;1.75;;;19.70;57.70;;;;;;4998238;28;20116;-50
2024/03/27 12:37:17;;;;;;;1.80;1.40;;;19.60;57.60;;;;;;5016180;28;20087;-50
2024/03/27 12:39:43;;;;;;;1.40;1.20;;;19.70;57.60;;;;;;5008955;28;20041;-50
2024/03/27 12:42:09;;;;;;;2.45;1.60;;;19.70;57.70;;;;;;5007132;28;20128;-53